sensor_id;sensor_type;location;lat;lon;timestamp;temperature;humidity
16273;DHT22;8244;50.044;9.006;2023-03-11T00:03:49;2.50;99.90
16273;DHT22;8244;50.044;9.006;2023-03-11T00:08:51;2.50;99.90
16273;DHT22;8244;50.044;9.006;2023-03-11T00:13:52;2.50;99.90
16273;DHT22;8244;50.044;9.006;2023-03-11T00:18:55;2.50;99.90
16273;DHT22;8244;50.044;9.006;2023-03-11T00:23:57;2.50;99.90
16273;DHT22;8244;50.044;9.006;2023-03-11T00:29:00;2.50;99.90
16273;DHT22;8244;50.044;9.006;2023-03-11T00:34:03;2.50;99.90
16273;DHT22;8244;50.044;9.006;2023-03-11T00:39:05;2.40;99.90
16273;DHT22;8244;50.044;9.006;2023-03-11T00:44:07;2.40;99.90
16273;DHT22;8244;50.044;9.006;2023-03-11T00:49:10;2.40;99.90
16273;DHT22;8244;50.044;9.006;2023-03-11T00:54:11;2.30;99.90
16273;DHT22;8244;50.044;9.006;2023-03-11T00:59:13;2.30;99.90
16273;DHT22;8244;50.044;9.006;2023-03-11T01:04:16;2.30;99.90
16273;DHT22;8244;50.044;9.006;2023-03-11T01:09:18;2.20;99.90
16273;DHT22;8244;50.044;9.006;2023-03-11T01:14:20;2.20;99.90
16273;DHT22;8244;50.044;9.006;2023-03-11T01:19:25;2.20;99.90
16273;DHT22;8244;50.044;9.006;2023-03-11T01:24:27;2.30;99.90
16273;DHT22;8244;50.044;9.006;2023-03-11T01:29:28;2.30;99.90
16273;DHT22;8244;50.044;9.006;2023-03-11T01:34:32;2.30;99.90
16273;DHT22;8244;50.044;9.006;2023-03-11T01:39:35;2.30;99.90
16273;DHT22;8244;50.044;9.006;2023-03-11T01:44:37;2.30;99.90
16273;DHT22;8244;50.044;9.006;2023-03-11T01:49:40;2.30;99.90
16273;DHT22;8244;50.044;9.006;2023-03-11T01:54:41;2.30;99.90
16273;DHT22;8244;50.044;9.006;2023-03-11T01:59:46;2.30;99.90
16273;DHT22;8244;50.044;9.006;2023-03-11T02:04:50;2.30;99.90
16273;DHT22;8244;50.044;9.006;2023-03-11T02:09:53;2.30;99.90
16273;DHT22;8244;50.044;9.006;2023-03-11T02:14:55;2.20;99.90
16273;DHT22;8244;50.044;9.006;2023-03-11T02:20:16;2.10;99.90
16273;DHT22;8244;50.044;9.006;2023-03-11T02:25:23;2.10;99.90
16273;DHT22;8244;50.044;9.006;2023-03-11T02:30:30;2.00;99.90
16273;DHT22;8244;50.044;9.006;2023-03-11T02:35:33;2.00;99.90
16273;DHT22;8244;50.044;9.006;2023-03-11T02:40:50;1.90;99.90
16273;DHT22;8244;50.044;9.006;2023-03-11T02:45:55;1.90;99.90
16273;DHT22;8244;50.044;9.006;2023-03-11T02:50:57;1.90;99.90
16273;DHT22;8244;50.044;9.006;2023-03-11T02:55:59;1.80;99.90
16273;DHT22;8244;50.044;9.006;2023-03-11T03:01:03;1.70;99.90
16273;DHT22;8244;50.044;9.006;2023-03-11T03:06:05;1.70;99.90
16273;DHT22;8244;50.044;9.006;2023-03-11T03:11:06;1.70;99.90
16273;DHT22;8244;50.044;9.006;2023-03-11T03:16:09;1.70;99.90
16273;DHT22;8244;50.044;9.006;2023-03-11T03:21:11;1.70;99.90
16273;DHT22;8244;50.044;9.006;2023-03-11T03:26:13;1.70;99.90
16273;DHT22;8244;50.044;9.006;2023-03-11T03:31:16;1.70;99.90
16273;DHT22;8244;50.044;9.006;2023-03-11T03:36:17;1.60;99.90
16273;DHT22;8244;50.044;9.006;2023-03-11T03:41:19;1.60;99.90
16273;DHT22;8244;50.044;9.006;2023-03-11T03:46:22;1.60;99.90
16273;DHT22;8244;50.044;9.006;2023-03-11T03:51:24;1.50;99.90
16273;DHT22;8244;50.044;9.006;2023-03-11T03:56:26;1.50;99.90
16273;DHT22;8244;50.044;9.006;2023-03-11T04:01:29;1.50;99.90
16273;DHT22;8244;50.044;9.006;2023-03-11T04:06:30;1.50;99.90
16273;DHT22;8244;50.044;9.006;2023-03-11T04:11:32;1.50;99.90
16273;DHT22;8244;50.044;9.006;2023-03-11T04:16:35;1.50;99.90
16273;DHT22;8244;50.044;9.006;2023-03-11T04:21:37;1.50;99.90
16273;DHT22;8244;50.044;9.006;2023-03-11T04:26:38;1.50;99.90
16273;DHT22;8244;50.044;9.006;2023-03-11T04:31:41;1.50;99.90
16273;DHT22;8244;50.044;9.006;2023-03-11T04:36:43;1.50;99.90
16273;DHT22;8244;50.044;9.006;2023-03-11T04:41:45;1.50;99.90
16273;DHT22;8244;50.044;9.006;2023-03-11T04:46:48;1.50;99.90
16273;DHT22;8244;50.044;9.006;2023-03-11T04:51:49;1.40;99.90
16273;DHT22;8244;50.044;9.006;2023-03-11T04:56:51;1.40;99.90
16273;DHT22;8244;50.044;9.006;2023-03-11T05:01:54;1.40;99.90
16273;DHT22;8244;50.044;9.006;2023-03-11T05:06:56;1.40;99.90
16273;DHT22;8244;50.044;9.006;2023-03-11T05:11:57;1.40;99.90
16273;DHT22;8244;50.044;9.006;2023-03-11T05:17:00;1.40;99.90
16273;DHT22;8244;50.044;9.006;2023-03-11T05:22:03;1.40;99.90
16273;DHT22;8244;50.044;9.006;2023-03-11T05:27:05;1.40;99.90
16273;DHT22;8244;50.044;9.006;2023-03-11T05:32:08;1.40;99.90
16273;DHT22;8244;50.044;9.006;2023-03-11T05:37:11;1.40;99.90
16273;DHT22;8244;50.044;9.006;2023-03-11T05:42:13;1.30;99.90
16273;DHT22;8244;50.044;9.006;2023-03-11T05:47:16;1.30;99.90
16273;DHT22;8244;50.044;9.006;2023-03-11T05:52:18;1.20;99.90
16273;DHT22;8244;50.044;9.006;2023-03-11T05:57:20;1.20;99.90
16273;DHT22;8244;50.044;9.006;2023-03-11T06:02:23;1.10;99.90
16273;DHT22;8244;50.044;9.006;2023-03-11T06:07:25;1.00;99.90
16273;DHT22;8244;50.044;9.006;2023-03-11T06:12:26;0.90;99.90
16273;DHT22;8244;50.044;9.006;2023-03-11T06:17:29;0.90;99.90
16273;DHT22;8244;50.044;9.006;2023-03-11T06:22:31;0.90;99.90
16273;DHT22;8244;50.044;9.006;2023-03-11T06:27:33;0.90;99.90
16273;DHT22;8244;50.044;9.006;2023-03-11T06:32:36;0.90;99.90
16273;DHT22;8244;50.044;9.006;2023-03-11T06:37:37;1.00;99.90
16273;DHT22;8244;50.044;9.006;2023-03-11T06:42:39;1.10;99.90
16273;DHT22;8244;50.044;9.006;2023-03-11T06:47:42;1.10;99.90
16273;DHT22;8244;50.044;9.006;2023-03-11T06:52:44;1.20;99.90
16273;DHT22;8244;50.044;9.006;2023-03-11T06:57:45;1.30;99.90
16273;DHT22;8244;50.044;9.006;2023-03-11T07:02:49;1.30;99.90
16273;DHT22;8244;50.044;9.006;2023-03-11T07:07:52;1.30;99.90
16273;DHT22;8244;50.044;9.006;2023-03-11T07:12:54;1.30;99.90
16273;DHT22;8244;50.044;9.006;2023-03-11T07:17:58;1.40;99.90
16273;DHT22;8244;50.044;9.006;2023-03-11T07:22:59;1.50;99.90
16273;DHT22;8244;50.044;9.006;2023-03-11T07:28:01;1.50;99.90
16273;DHT22;8244;50.044;9.006;2023-03-11T07:33:04;1.50;99.90
16273;DHT22;8244;50.044;9.006;2023-03-11T07:38:06;1.50;99.90
16273;DHT22;8244;50.044;9.006;2023-03-11T07:43:07;1.60;99.90
16273;DHT22;8244;50.044;9.006;2023-03-11T07:48:10;1.70;99.90
16273;DHT22;8244;50.044;9.006;2023-03-11T07:53:12;1.70;99.90
16273;DHT22;8244;50.044;9.006;2023-03-11T07:58:14;1.70;99.90
16273;DHT22;8244;50.044;9.006;2023-03-11T08:03:17;1.70;99.90
16273;DHT22;8244;50.044;9.006;2023-03-11T08:08:19;1.80;99.90
16273;DHT22;8244;50.044;9.006;2023-03-11T08:13:20;1.90;99.90
16273;DHT22;8244;50.044;9.006;2023-03-11T08:18:23;2.10;99.90
16273;DHT22;8244;50.044;9.006;2023-03-11T08:23:25;2.30;99.90
16273;DHT22;8244;50.044;9.006;2023-03-11T08:28:27;2.40;99.90
16273;DHT22;8244;50.044;9.006;2023-03-11T08:33:29;2.50;99.90
16273;DHT22;8244;50.044;9.006;2023-03-11T08:38:31;2.70;99.90
16273;DHT22;8244;50.044;9.006;2023-03-11T08:43:33;3.00;99.90
16273;DHT22;8244;50.044;9.006;2023-03-11T08:48:36;3.60;99.90
16273;DHT22;8244;50.044;9.006;2023-03-11T08:53:38;4.70;99.90
16273;DHT22;8244;50.044;9.006;2023-03-11T08:58:40;5.70;99.90
16273;DHT22;8244;50.044;9.006;2023-03-11T09:03:43;6.70;99.90
16273;DHT22;8244;50.044;9.006;2023-03-11T09:08:46;7.30;99.90
16273;DHT22;8244;50.044;9.006;2023-03-11T09:13:48;7.70;99.90
16273;DHT22;8244;50.044;9.006;2023-03-11T09:18:52;8.20;99.90
16273;DHT22;8244;50.044;9.006;2023-03-11T09:23:53;9.00;99.90
16273;DHT22;8244;50.044;9.006;2023-03-11T09:28:55;9.00;99.90
16273;DHT22;8244;50.044;9.006;2023-03-11T09:33:58;8.90;99.90
16273;DHT22;8244;50.044;9.006;2023-03-11T09:39:00;9.00;99.90
16273;DHT22;8244;50.044;9.006;2023-03-11T09:44:10;8.80;99.90
16273;DHT22;8244;50.044;9.006;2023-03-11T09:49:21;8.80;99.50
16273;DHT22;8244;50.044;9.006;2023-03-11T09:54:26;9.00;99.60
16273;DHT22;8244;50.044;9.006;2023-03-11T09:59:31;9.10;99.10
16273;DHT22;8244;50.044;9.006;2023-03-11T10:04:38;8.90;99.10
16273;DHT22;8244;50.044;9.006;2023-03-11T10:09:46;8.30;96.40
16273;DHT22;8244;50.044;9.006;2023-03-11T10:15:07;7.90;97.20
16273;DHT22;8244;50.044;9.006;2023-03-11T10:20:19;7.60;97.40
16273;DHT22;8244;50.044;9.006;2023-03-11T10:25:25;7.50;97.70
16273;DHT22;8244;50.044;9.006;2023-03-11T10:30:31;7.50;98.00
16273;DHT22;8244;50.044;9.006;2023-03-11T10:35:39;7.60;97.20
16273;DHT22;8244;50.044;9.006;2023-03-11T10:40:42;7.40;96.40
16273;DHT22;8244;50.044;9.006;2023-03-11T10:45:45;7.30;95.00
16273;DHT22;8244;50.044;9.006;2023-03-11T10:50:55;7.30;95.40
16273;DHT22;8244;50.044;9.006;2023-03-11T10:55:58;7.40;96.00
16273;DHT22;8244;50.044;9.006;2023-03-11T11:01:02;7.50;94.50
16273;DHT22;8244;50.044;9.006;2023-03-11T11:06:22;7.60;95.60
16273;DHT22;8244;50.044;9.006;2023-03-11T11:11:24;8.00;94.60
16273;DHT22;8244;50.044;9.006;2023-03-11T11:16:27;8.10;94.20
16273;DHT22;8244;50.044;9.006;2023-03-11T11:21:32;8.40;93.40
16273;DHT22;8244;50.044;9.006;2023-03-11T11:26:34;8.90;93.90
16273;DHT22;8244;50.044;9.006;2023-03-11T11:31:37;9.60;94.80
16273;DHT22;8244;50.044;9.006;2023-03-11T11:36:40;9.90;93.70
16273;DHT22;8244;50.044;9.006;2023-03-11T11:41:43;10.40;93.60
16273;DHT22;8244;50.044;9.006;2023-03-11T11:46:48;11.10;91.50
16273;DHT22;8244;50.044;9.006;2023-03-11T11:51:58;11.70;89.50
16273;DHT22;8244;50.044;9.006;2023-03-11T11:57:09;11.70;85.10
16273;DHT22;8244;50.044;9.006;2023-03-11T12:02:22;11.50;85.10
16273;DHT22;8244;50.044;9.006;2023-03-11T12:07:42;11.10;87.00
16273;DHT22;8244;50.044;9.006;2023-03-11T12:13:08;10.90;85.50
16273;DHT22;8244;50.044;9.006;2023-03-11T12:18:16;10.60;85.60
16273;DHT22;8244;50.044;9.006;2023-03-11T12:23:26;10.30;87.80
16273;DHT22;8244;50.044;9.006;2023-03-11T12:28:38;10.30;86.00
16273;DHT22;8244;50.044;9.006;2023-03-11T12:33:43;10.30;86.70
16273;DHT22;8244;50.044;9.006;2023-03-11T12:38:47;10.30;89.50
16273;DHT22;8244;50.044;9.006;2023-03-11T12:44:19;10.10;89.80
16273;DHT22;8244;50.044;9.006;2023-03-11T12:49:23;10.00;88.30
16273;DHT22;8244;50.044;9.006;2023-03-11T12:54:31;9.70;86.80
16273;DHT22;8244;50.044;9.006;2023-03-11T13:05:22;10.20;86.70
16273;DHT22;8244;50.044;9.006;2023-03-11T13:10:38;10.10;86.20
16273;DHT22;8244;50.044;9.006;2023-03-11T13:15:40;9.60;85.70
16273;DHT22;8244;50.044;9.006;2023-03-11T13:21:00;9.50;84.20
16273;DHT22;8244;50.044;9.006;2023-03-11T13:26:36;9.50;89.10
16273;DHT22;8244;50.044;9.006;2023-03-11T13:31:47;9.60;85.20
16273;DHT22;8244;50.044;9.006;2023-03-11T13:37:02;9.30;83.90
16273;DHT22;8244;50.044;9.006;2023-03-11T13:42:19;9.20;88.90
16273;DHT22;8244;50.044;9.006;2023-03-11T13:47:24;9.10;88.30
16273;DHT22;8244;50.044;9.006;2023-03-11T13:52:30;9.10;90.10
16273;DHT22;8244;50.044;9.006;2023-03-11T13:57:35;9.10;88.50
16273;DHT22;8244;50.044;9.006;2023-03-11T14:02:37;9.10;88.10
16273;DHT22;8244;50.044;9.006;2023-03-11T14:07:44;9.00;87.00
16273;DHT22;8244;50.044;9.006;2023-03-11T14:12:47;8.90;88.50
16273;DHT22;8244;50.044;9.006;2023-03-11T14:17:50;8.80;88.90
16273;DHT22;8244;50.044;9.006;2023-03-11T14:22:53;8.70;89.00
16273;DHT22;8244;50.044;9.006;2023-03-11T14:28:00;8.40;89.30
16273;DHT22;8244;50.044;9.006;2023-03-11T14:33:04;8.40;90.20
16273;DHT22;8244;50.044;9.006;2023-03-11T14:38:19;8.30;90.00
16273;DHT22;8244;50.044;9.006;2023-03-11T14:43:23;8.20;90.40
16273;DHT22;8244;50.044;9.006;2023-03-11T14:48:28;8.20;90.10
16273;DHT22;8244;50.044;9.006;2023-03-11T14:53:35;8.10;88.80
16273;DHT22;8244;50.044;9.006;2023-03-11T14:58:42;8.00;90.40
16273;DHT22;8244;50.044;9.006;2023-03-11T15:03:48;8.10;89.80
16273;DHT22;8244;50.044;9.006;2023-03-11T15:08:57;8.10;87.10
16273;DHT22;8244;50.044;9.006;2023-03-11T15:14:19;8.30;90.30
16273;DHT22;8244;50.044;9.006;2023-03-11T15:19:22;8.30;90.20
16273;DHT22;8244;50.044;9.006;2023-03-11T15:24:31;8.30;90.00
16273;DHT22;8244;50.044;9.006;2023-03-11T15:29:35;8.20;90.60
16273;DHT22;8244;50.044;9.006;2023-03-11T15:34:37;8.20;90.00
16273;DHT22;8244;50.044;9.006;2023-03-11T15:39:45;8.20;88.20
16273;DHT22;8244;50.044;9.006;2023-03-11T15:45:07;8.20;90.00
16273;DHT22;8244;50.044;9.006;2023-03-11T15:50:15;8.00;89.50
16273;DHT22;8244;50.044;9.006;2023-03-11T15:55:18;8.00;90.30
16273;DHT22;8244;50.044;9.006;2023-03-11T16:00:22;8.00;89.80
16273;DHT22;8244;50.044;9.006;2023-03-11T16:05:24;7.80;89.80
16273;DHT22;8244;50.044;9.006;2023-03-11T16:10:26;7.70;89.20
16273;DHT22;8244;50.044;9.006;2023-03-11T16:15:31;7.50;89.40
16273;DHT22;8244;50.044;9.006;2023-03-11T16:20:38;7.50;89.50
16273;DHT22;8244;50.044;9.006;2023-03-11T16:25:40;7.40;90.40
16273;DHT22;8244;50.044;9.006;2023-03-11T16:30:43;7.30;88.10
16273;DHT22;8244;50.044;9.006;2023-03-11T16:35:46;7.20;90.20
16273;DHT22;8244;50.044;9.006;2023-03-11T16:40:54;7.10;90.30
16273;DHT22;8244;50.044;9.006;2023-03-11T16:45:57;7.10;90.20
16273;DHT22;8244;50.044;9.006;2023-03-11T16:50:59;7.00;90.70
16273;DHT22;8244;50.044;9.006;2023-03-11T16:56:01;6.90;90.00
16273;DHT22;8244;50.044;9.006;2023-03-11T17:01:04;6.80;90.70
16273;DHT22;8244;50.044;9.006;2023-03-11T17:06:05;6.60;90.50
16273;DHT22;8244;50.044;9.006;2023-03-11T17:11:13;6.50;90.90
16273;DHT22;8244;50.044;9.006;2023-03-11T17:16:16;6.30;91.40
16273;DHT22;8244;50.044;9.006;2023-03-11T17:21:18;6.10;90.70
16273;DHT22;8244;50.044;9.006;2023-03-11T17:26:19;5.90;91.10
16273;DHT22;8244;50.044;9.006;2023-03-11T17:31:23;5.60;91.30
16273;DHT22;8244;50.044;9.006;2023-03-11T17:36:25;5.40;91.70
16273;DHT22;8244;50.044;9.006;2023-03-11T17:41:27;5.10;91.80
16273;DHT22;8244;50.044;9.006;2023-03-11T17:46:32;4.90;91.90
16273;DHT22;8244;50.044;9.006;2023-03-11T17:51:35;4.70;91.80
16273;DHT22;8244;50.044;9.006;2023-03-11T17:56:37;4.40;91.90
16273;DHT22;8244;50.044;9.006;2023-03-11T18:01:40;4.20;92.50
16273;DHT22;8244;50.044;9.006;2023-03-11T18:06:41;3.90;92.90
16273;DHT22;8244;50.044;9.006;2023-03-11T18:11:43;3.70;93.40
16273;DHT22;8244;50.044;9.006;2023-03-11T18:16:46;3.40;94.40
16273;DHT22;8244;50.044;9.006;2023-03-11T18:21:48;3.20;95.30
16273;DHT22;8244;50.044;9.006;2023-03-11T18:26:50;3.00;96.60
16273;DHT22;8244;50.044;9.006;2023-03-11T18:31:53;2.80;97.10
16273;DHT22;8244;50.044;9.006;2023-03-11T18:36:55;2.60;98.10
16273;DHT22;8244;50.044;9.006;2023-03-11T18:41:57;2.30;98.80
16273;DHT22;8244;50.044;9.006;2023-03-11T18:47:00;2.10;99.60
16273;DHT22;8244;50.044;9.006;2023-03-11T18:52:02;2.00;99.90
16273;DHT22;8244;50.044;9.006;2023-03-11T18:57:03;1.80;99.90
16273;DHT22;8244;50.044;9.006;2023-03-11T19:02:08;1.60;99.90
16273;DHT22;8244;50.044;9.006;2023-03-11T19:07:10;1.40;99.90
16273;DHT22;8244;50.044;9.006;2023-03-11T19:12:12;1.30;99.90
16273;DHT22;8244;50.044;9.006;2023-03-11T19:17:15;1.10;99.90
16273;DHT22;8244;50.044;9.006;2023-03-11T19:22:17;1.00;99.90
16273;DHT22;8244;50.044;9.006;2023-03-11T19:27:19;0.90;99.90
16273;DHT22;8244;50.044;9.006;2023-03-11T19:32:22;0.70;99.90
16273;DHT22;8244;50.044;9.006;2023-03-11T19:37:23;0.60;99.90
16273;DHT22;8244;50.044;9.006;2023-03-11T19:42:25;0.40;99.90
16273;DHT22;8244;50.044;9.006;2023-03-11T19:47:28;0.30;99.90
16273;DHT22;8244;50.044;9.006;2023-03-11T19:52:30;0.20;99.90
16273;DHT22;8244;50.044;9.006;2023-03-11T19:57:34;0.10;99.90
16273;DHT22;8244;50.044;9.006;2023-03-11T20:02:37;0.10;99.90
16273;DHT22;8244;50.044;9.006;2023-03-11T20:07:38;-0.10;99.90
16273;DHT22;8244;50.044;9.006;2023-03-11T20:12:40;-0.20;99.90
16273;DHT22;8244;50.044;9.006;2023-03-11T20:17:43;-0.40;99.90
16273;DHT22;8244;50.044;9.006;2023-03-11T20:22:45;-0.50;99.90
16273;DHT22;8244;50.044;9.006;2023-03-11T20:27:46;-0.60;99.90
16273;DHT22;8244;50.044;9.006;2023-03-11T20:32:49;-0.70;99.90
16273;DHT22;8244;50.044;9.006;2023-03-11T20:37:52;-0.80;99.90
16273;DHT22;8244;50.044;9.006;2023-03-11T20:42:53;-0.90;99.90
16273;DHT22;8244;50.044;9.006;2023-03-11T20:47:56;-1.00;99.90
16273;DHT22;8244;50.044;9.006;2023-03-11T20:52:58;-1.00;99.90
16273;DHT22;8244;50.044;9.006;2023-03-11T20:58:00;-1.00;99.90
16273;DHT22;8244;50.044;9.006;2023-03-11T21:03:03;-0.90;99.90
16273;DHT22;8244;50.044;9.006;2023-03-11T21:08:04;-0.90;99.90
16273;DHT22;8244;50.044;9.006;2023-03-11T21:13:06;-0.90;99.90
16273;DHT22;8244;50.044;9.006;2023-03-11T21:18:09;-0.90;99.90
16273;DHT22;8244;50.044;9.006;2023-03-11T21:23:11;-0.90;99.90
16273;DHT22;8244;50.044;9.006;2023-03-11T21:28:13;-1.00;99.90
16273;DHT22;8244;50.044;9.006;2023-03-11T21:33:16;-1.00;99.90
16273;DHT22;8244;50.044;9.006;2023-03-11T21:38:17;-1.10;99.90
16273;DHT22;8244;50.044;9.006;2023-03-11T21:43:19;-1.20;99.90
16273;DHT22;8244;50.044;9.006;2023-03-11T21:48:22;-1.30;99.90
16273;DHT22;8244;50.044;9.006;2023-03-11T21:53:24;-1.30;99.90
16273;DHT22;8244;50.044;9.006;2023-03-11T21:58:26;-1.40;99.90
16273;DHT22;8244;50.044;9.006;2023-03-11T22:03:30;-1.50;99.90
16273;DHT22;8244;50.044;9.006;2023-03-11T22:08:35;-1.50;99.90
16273;DHT22;8244;50.044;9.006;2023-03-11T22:13:36;-1.60;99.90
16273;DHT22;8244;50.044;9.006;2023-03-11T22:18:39;-1.60;99.90
16273;DHT22;8244;50.044;9.006;2023-03-11T22:23:42;-1.70;99.90
16273;DHT22;8244;50.044;9.006;2023-03-11T22:28:43;-1.70;99.90
16273;DHT22;8244;50.044;9.006;2023-03-11T22:33:46;-1.90;99.90
16273;DHT22;8244;50.044;9.006;2023-03-11T22:38:48;-1.90;99.90
16273;DHT22;8244;50.044;9.006;2023-03-11T22:43:50;-1.90;99.90
16273;DHT22;8244;50.044;9.006;2023-03-11T22:48:53;-2.00;99.90
16273;DHT22;8244;50.044;9.006;2023-03-11T22:53:54;-2.00;99.90
16273;DHT22;8244;50.044;9.006;2023-03-11T22:58:56;-2.10;99.90
16273;DHT22;8244;50.044;9.006;2023-03-11T23:04:00;-2.10;99.90
16273;DHT22;8244;50.044;9.006;2023-03-11T23:09:03;-2.20;99.90
16273;DHT22;8244;50.044;9.006;2023-03-11T23:14:04;-2.20;99.90
16273;DHT22;8244;50.044;9.006;2023-03-11T23:19:08;-2.20;99.90
16273;DHT22;8244;50.044;9.006;2023-03-11T23:24:09;-2.20;99.90
16273;DHT22;8244;50.044;9.006;2023-03-11T23:29:11;-2.20;99.90
16273;DHT22;8244;50.044;9.006;2023-03-11T23:34:15;-2.20;99.90
16273;DHT22;8244;50.044;9.006;2023-03-11T23:39:17;-2.20;99.90
16273;DHT22;8244;50.044;9.006;2023-03-11T23:44:18;-2.20;99.90
16273;DHT22;8244;50.044;9.006;2023-03-11T23:49:22;-2.20;99.90
16273;DHT22;8244;50.044;9.006;2023-03-11T23:54:25;-2.20;99.90
16273;DHT22;8244;50.044;9.006;2023-03-11T23:59:27;-2.20;99.90
